Time;durP1;ratioP1;P1;durP2;ratioP2;P2;SDS_P1;SDS_P2;PMS_P1;PMS_P2;Temp;Humidity;BMP_temperature;BMP_pressure;BME280_temperature;BME280_humidity;BME280_pressure;Samples;Min_cycle;Max_cycle;Signal;HPM_P1;HPM_P2
2021/07/17 00:01:23;;;;;;;15.87;8.03;;;19.10;99.90;;;;;;5104188;28;20734;-46
2021/07/17 00:03:49;;;;;;;17.77;7.23;;;19.10;99.90;;;;;;5099918;28;20782;-50
2021/07/17 00:06:16;;;;;;;22.17;8.70;;;19.10;99.90;;;;;;5089736;28;20194;-45
2021/07/17 00:08:43;;;;;;;19.00;8.40;;;19.10;99.90;;;;;;5080066;28;20737;-48
2021/07/17 00:11:09;;;;;;;23.30;8.57;;;19.10;99.90;;;;;;5096198;28;20212;-45
2021/07/17 00:13:37;;;;;;;15.87;7.87;;;19.00;99.90;;;;;;5092498;28;20221;-47
2021/07/17 00:16:04;;;;;;;24.77;8.50;;;19.00;99.90;;;;;;5100796;28;20188;-43
2021/07/17 00:18:31;;;;;;;22.43;9.53;;;19.00;99.90;;;;;;5103676;28;20586;-45
2021/07/17 00:20:57;;;;;;;20.47;9.60;;;19.00;99.90;;;;;;5100194;28;20881;-44
2021/07/17 00:23:24;;;;;;;21.80;9.00;;;18.90;99.90;;;;;;5089604;28;20227;-44
2021/07/17 00:25:55;;;;;;;20.10;9.40;;;18.90;99.90;;;;;;5088769;28;20193;-47
2021/07/17 00:28:21;;;;;;;22.17;8.93;;;18.90;99.90;;;;;;5094772;28;20197;-45
2021/07/17 00:30:50;;;;;;;23.70;9.47;;;18.80;99.90;;;;;;5102171;28;20548;-47
2021/07/17 00:33:16;;;;;;;23.70;9.20;;;18.80;99.90;;;;;;5104430;28;20236;-43
2021/07/17 00:35:43;;;;;;;19.33;8.90;;;18.90;99.90;;;;;;5107604;27;20197;-46
2021/07/17 00:38:10;;;;;;;28.40;9.27;;;18.90;99.90;;;;;;5087441;27;20212;-46
2021/07/17 00:40:37;;;;;;;24.13;10.10;;;18.90;99.90;;;;;;5100174;27;20663;-44
2021/07/17 00:43:04;;;;;;;26.20;9.07;;;18.80;99.90;;;;;;5105374;28;20201;-49
2021/07/17 00:45:30;;;;;;;21.10;10.17;;;18.90;99.90;;;;;;5096682;27;20205;-46
2021/07/17 00:47:58;;;;;;;23.57;10.63;;;18.80;99.90;;;;;;5109035;27;20666;-48
2021/07/17 00:50:26;;;;;;;18.13;10.10;;;18.80;99.90;;;;;;5106587;27;20407;-47
2021/07/17 00:52:53;;;;;;;19.37;9.13;;;18.80;99.90;;;;;;5097124;28;20213;-44
2021/07/17 00:55:21;;;;;;;18.83;9.87;;;18.80;99.90;;;;;;5093090;28;20208;-45
2021/07/17 00:57:50;;;;;;;19.30;10.60;;;18.70;99.90;;;;;;5105167;27;20193;-45
2021/07/17 01:00:18;;;;;;;21.17;9.70;;;18.80;99.90;;;;;;5096868;27;20197;-44
2021/07/17 01:02:48;;;;;;;19.23;9.43;;;18.70;99.90;;;;;;5109989;28;20197;-44
2021/07/17 01:05:17;;;;;;;23.93;9.87;;;18.70;99.90;;;;;;5106627;27;20212;-49
2021/07/17 01:07:45;;;;;;;27.80;10.50;;;18.70;99.90;;;;;;5109773;28;20258;-43
2021/07/17 01:10:12;;;;;;;19.67;10.13;;;18.70;99.90;;;;;;5082764;27;20205;-47
2021/07/17 01:12:39;;;;;;;24.00;9.93;;;18.70;99.90;;;;;;5104510;27;20558;-43
2021/07/17 01:15:07;;;;;;;22.67;10.50;;;18.60;99.90;;;;;;5098789;28;20209;-47
2021/07/17 01:17:35;;;;;;;22.33;10.63;;;18.60;99.90;;;;;;5102532;27;20206;-46
2021/07/17 01:20:03;;;;;;;22.67;10.47;;;18.50;99.90;;;;;;5108889;28;20185;-47
2021/07/17 01:22:32;;;;;;;27.87;11.03;;;18.60;99.90;;;;;;5108381;28;20189;-46
2021/07/17 01:24:58;;;;;;;25.27;10.63;;;18.50;99.90;;;;;;5088884;28;20758;-49
2021/07/17 01:27:25;;;;;;;16.90;9.57;;;18.60;99.90;;;;;;5107191;28;20204;-43
2021/07/17 01:29:52;;;;;;;20.03;10.13;;;18.50;99.90;;;;;;5093001;28;20208;-44
2021/07/17 01:32:20;;;;;;;26.23;11.30;;;18.50;99.90;;;;;;5106122;28;20823;-44
2021/07/17 01:34:47;;;;;;;17.60;10.03;;;18.50;99.90;;;;;;5107253;27;20232;-45
2021/07/17 01:37:14;;;;;;;17.93;9.90;;;18.50;99.90;;;;;;5106098;28;20242;-49
2021/07/17 01:39:42;;;;;;;17.60;9.53;;;18.50;99.90;;;;;;5108583;27;20209;-43
2021/07/17 01:42:09;;;;;;;18.43;10.77;;;18.50;99.90;;;;;;5075084;28;20218;-48
2021/07/17 01:44:42;;;;;;;20.33;8.90;;;18.50;99.90;;;;;;5085355;28;20372;-43
2021/07/17 01:47:11;;;;;;;22.63;10.23;;;18.50;99.90;;;;;;5103555;28;20527;-48
2021/07/17 01:49:37;;;;;;;18.97;10.20;;;18.50;99.90;;;;;;5086767;28;20565;-44
2021/07/17 01:52:04;;;;;;;19.37;9.80;;;18.50;99.90;;;;;;5098880;28;20219;-47
2021/07/17 01:54:33;;;;;;;18.90;9.90;;;18.50;99.90;;;;;;5101829;28;20209;-43
2021/07/17 01:57:01;;;;;;;20.77;9.87;;;18.50;99.90;;;;;;5089363;28;20209;-49
2021/07/17 01:59:28;;;;;;;20.50;9.80;;;18.50;99.90;;;;;;5098511;28;20205;-44
2021/07/17 02:01:55;;;;;;;20.27;8.97;;;18.50;99.90;;;;;;5097574;28;20193;-44
2021/07/17 02:04:21;;;;;;;18.80;8.53;;;18.50;99.90;;;;;;5102303;28;20213;-46
2021/07/17 02:06:48;;;;;;;14.93;8.30;;;18.50;99.90;;;;;;5104784;28;20281;-43
2021/07/17 02:09:15;;;;;;;13.47;7.80;;;18.50;99.90;;;;;;5100198;28;20666;-48
2021/07/17 02:11:41;;;;;;;15.80;8.47;;;18.50;99.90;;;;;;5093050;28;20221;-43
2021/07/17 02:14:09;;;;;;;13.27;8.73;;;18.50;99.90;;;;;;5103754;28;20573;-49
2021/07/17 02:16:36;;;;;;;15.90;8.37;;;18.50;99.90;;;;;;5091183;28;20205;-47
2021/07/17 02:19:18;;;;;;;18.57;8.83;;;18.50;99.90;;;;;;5093763;28;20198;-49
2021/07/17 02:21:47;;;;;;;19.00;10.17;;;18.50;99.90;;;;;;5105887;28;20590;-45
2021/07/17 02:24:13;;;;;;;15.23;8.67;;;18.50;99.90;;;;;;5096909;28;20221;-48
2021/07/17 02:26:40;;;;;;;15.73;9.13;;;18.50;99.90;;;;;;5085533;28;20224;-44
2021/07/17 02:29:07;;;;;;;16.80;8.13;;;18.50;99.90;;;;;;5089105;28;20194;-52
2021/07/17 02:31:36;;;;;;;16.37;8.57;;;18.50;99.90;;;;;;5076747;28;20225;-44
2021/07/17 02:34:03;;;;;;;15.50;8.33;;;18.50;99.90;;;;;;5104200;28;20217;-49
2021/07/17 02:36:30;;;;;;;12.50;7.87;;;18.50;99.90;;;;;;5103046;28;20189;-44
2021/07/17 02:38:56;;;;;;;14.37;8.10;;;18.50;99.90;;;;;;5104663;28;20189;-49
2021/07/17 02:41:23;;;;;;;15.90;8.40;;;18.50;99.90;;;;;;5088504;28;20197;-44
2021/07/17 02:43:50;;;;;;;15.50;8.10;;;18.50;99.90;;;;;;5105785;28;20205;-44
2021/07/17 02:46:17;;;;;;;13.40;8.13;;;18.50;99.90;;;;;;5092407;28;20833;-47
2021/07/17 02:48:45;;;;;;;17.43;8.43;;;18.50;99.90;;;;;;5102140;28;20233;-44
2021/07/17 02:51:12;;;;;;;14.47;7.47;;;18.50;99.90;;;;;;5102001;28;20209;-51
2021/07/17 02:53:38;;;;;;;14.73;8.20;;;18.50;99.90;;;;;;5101681;28;20722;-44
2021/07/17 02:56:06;;;;;;;19.83;8.00;;;18.40;99.90;;;;;;5096473;28;20652;-48
2021/07/17 02:58:32;;;;;;;15.10;8.07;;;18.50;99.90;;;;;;5097391;28;20193;-43
2021/07/17 03:01:00;;;;;;;14.50;7.83;;;18.50;99.90;;;;;;5104581;28;20192;-48
2021/07/17 03:03:26;;;;;;;15.73;8.30;;;18.50;99.90;;;;;;5085322;28;20884;-44
2021/07/17 03:05:55;;;;;;;14.47;8.63;;;18.50;99.90;;;;;;5103718;28;20197;-47
2021/07/17 03:08:23;;;;;;;12.90;7.97;;;18.50;99.90;;;;;;5096392;28;20961;-46
2021/07/17 03:10:50;;;;;;;13.10;8.40;;;18.40;99.90;;;;;;5095173;28;20548;-45
2021/07/17 03:13:18;;;;;;;12.60;7.83;;;18.40;99.90;;;;;;5087945;28;20216;-43
2021/07/17 03:15:46;;;;;;;13.50;8.20;;;18.40;99.90;;;;;;5104869;28;20194;-44
2021/07/17 03:18:13;;;;;;;13.53;8.60;;;18.40;99.90;;;;;;5092083;28;20200;-47
2021/07/17 03:20:40;;;;;;;13.20;7.50;;;18.40;99.90;;;;;;5101124;28;20655;-45
2021/07/17 03:23:08;;;;;;;18.07;8.80;;;18.40;99.90;;;;;;5102837;28;20197;-47
2021/07/17 03:25:34;;;;;;;11.57;7.60;;;18.50;99.90;;;;;;5103261;28;20923;-45
2021/07/17 03:28:01;;;;;;;11.30;8.07;;;18.40;99.90;;;;;;5088184;28;20554;-48
2021/07/17 03:30:28;;;;;;;11.40;7.63;;;18.40;99.90;;;;;;5077856;28;20202;-45
2021/07/17 03:32:55;;;;;;;9.90;6.90;;;18.40;99.90;;;;;;5083193;28;20204;-45
2021/07/17 03:35:21;;;;;;;10.47;6.80;;;18.40;99.90;;;;;;5092150;28;20216;-44
2021/07/17 03:37:48;;;;;;;10.37;6.93;;;18.40;99.90;;;;;;5103793;28;20193;-43
2021/07/17 03:40:16;;;;;;;7.77;6.20;;;18.40;99.90;;;;;;5094690;28;20196;-47
2021/07/17 03:42:43;;;;;;;8.80;6.50;;;18.40;99.90;;;;;;5077582;28;20204;-44
2021/07/17 03:45:10;;;;;;;8.93;6.40;;;18.40;99.90;;;;;;5101458;28;20205;-51
2021/07/17 03:47:37;;;;;;;7.57;5.90;;;18.40;99.90;;;;;;5093793;28;20212;-44
2021/07/17 03:50:04;;;;;;;7.03;5.73;;;18.40;99.90;;;;;;5093013;28;20201;-48
2021/07/17 03:52:31;;;;;;;7.27;5.70;;;18.40;99.90;;;;;;5101792;28;20221;-46
2021/07/17 03:54:57;;;;;;;11.07;5.80;;;18.40;99.90;;;;;;5079688;28;20225;-48
2021/07/17 03:57:25;;;;;;;8.53;4.97;;;18.40;99.90;;;;;;5071862;28;20396;-44
2021/07/17 03:59:52;;;;;;;10.17;5.27;;;18.40;99.90;;;;;;5103164;28;20203;-43
2021/07/17 04:02:19;;;;;;;7.40;5.57;;;18.40;99.90;;;;;;5090965;28;20208;-43
2021/07/17 04:04:47;;;;;;;9.23;5.47;;;18.30;99.90;;;;;;5102670;28;20209;-43
2021/07/17 04:07:13;;;;;;;6.77;4.90;;;18.30;99.90;;;;;;5095042;28;20593;-48
2021/07/17 04:09:40;;;;;;;6.63;4.57;;;18.30;99.90;;;;;;5102731;28;20197;-43
2021/07/17 04:12:08;;;;;;;5.70;3.63;;;18.30;99.90;;;;;;5081470;28;20357;-50
2021/07/17 04:14:36;;;;;;;7.10;4.37;;;18.30;99.90;;;;;;5098849;28;20267;-46
2021/07/17 04:17:03;;;;;;;6.93;3.90;;;18.30;99.90;;;;;;5102706;28;20186;-46
2021/07/17 04:19:30;;;;;;;7.47;3.77;;;18.30;99.90;;;;;;5091927;27;20306;-44
2021/07/17 04:21:56;;;;;;;3.93;3.37;;;18.30;99.90;;;;;;5103306;28;20189;-47
2021/07/17 04:24:23;;;;;;;6.27;3.60;;;18.30;99.90;;;;;;5100095;28;20225;-45
2021/07/17 04:26:49;;;;;;;4.23;3.47;;;18.20;99.90;;;;;;5103610;28;20201;-50
2021/07/17 04:29:16;;;;;;;3.83;3.50;;;18.30;99.90;;;;;;5076296;28;20945;-43
2021/07/17 04:31:44;;;;;;;5.50;3.30;;;18.20;99.90;;;;;;5083414;28;20210;-43
2021/07/17 04:34:11;;;;;;;4.63;3.10;;;18.20;99.90;;;;;;5080137;28;20228;-47
2021/07/17 04:36:37;;;;;;;4.67;3.17;;;18.20;99.90;;;;;;5093891;28;20574;-47
2021/07/17 04:39:04;;;;;;;3.73;3.00;;;18.20;99.90;;;;;;5096311;28;20212;-47
2021/07/17 04:41:31;;;;;;;3.50;2.60;;;18.20;99.90;;;;;;5095704;28;20201;-48
2021/07/17 04:43:58;;;;;;;3.87;2.70;;;18.20;99.90;;;;;;5101338;28;20210;-46
2021/07/17 04:46:24;;;;;;;2.93;2.63;;;18.20;99.90;;;;;;5088004;28;20382;-46
2021/07/17 04:48:52;;;;;;;5.40;3.07;;;18.20;99.90;;;;;;5078070;28;20209;-47
2021/07/17 04:51:19;;;;;;;2.97;2.33;;;18.10;99.90;;;;;;5094416;28;20209;-43
2021/07/17 04:53:45;;;;;;;3.20;2.57;;;18.10;99.90;;;;;;5095820;28;20224;-42
2021/07/17 04:56:12;;;;;;;3.50;2.70;;;18.20;99.90;;;;;;5094402;28;20201;-43
2021/07/17 04:58:38;;;;;;;6.53;2.47;;;18.20;99.90;;;;;;5086044;28;20287;-51
2021/07/17 05:01:05;;;;;;;3.37;2.50;;;18.20;99.90;;;;;;5087218;28;20204;-56
2021/07/17 05:03:32;;;;;;;5.73;3.37;;;18.20;99.90;;;;;;5089454;28;20229;-52
2021/07/17 05:06:00;;;;;;;6.70;3.47;;;18.20;99.90;;;;;;5087849;28;20790;-56
2021/07/17 05:08:26;;;;;;;4.13;2.70;;;18.20;99.90;;;;;;5094628;28;20208;-55
2021/07/17 05:10:53;;;;;;;6.30;2.93;;;18.20;99.90;;;;;;5095882;28;20212;-55
2021/07/17 05:13:19;;;;;;;4.10;2.63;;;18.20;99.90;;;;;;5100103;28;20201;-57
2021/07/17 05:15:46;;;;;;;5.03;2.50;;;18.20;99.90;;;;;;5089082;28;20209;-43
2021/07/17 05:18:13;;;;;;;5.40;2.77;;;18.20;99.90;;;;;;5097363;28;20220;-46
2021/07/17 05:20:40;;;;;;;3.47;2.50;;;18.20;99.90;;;;;;5092976;28;20236;-45
2021/07/17 05:23:10;;;;;;;3.37;2.40;;;18.20;99.90;;;;;;5095922;28;20189;-47
2021/07/17 05:25:36;;;;;;;6.03;2.67;;;18.10;99.90;;;;;;5095379;28;20202;-50
2021/07/17 05:28:05;;;;;;;4.03;2.27;;;18.10;99.90;;;;;;5085522;28;20193;-45
2021/07/17 05:30:31;;;;;;;3.60;2.00;;;18.10;99.90;;;;;;5093490;28;20205;-45
2021/07/17 05:32:58;;;;;;;3.20;1.93;;;18.00;99.90;;;;;;5094365;28;20216;-49
2021/07/17 05:35:27;;;;;;;3.60;2.00;;;18.10;99.90;;;;;;5087304;28;20232;-44
2021/07/17 05:37:54;;;;;;;2.83;2.20;;;18.10;99.90;;;;;;5097081;28;20277;-47
2021/07/17 05:40:22;;;;;;;5.33;2.20;;;18.10;99.90;;;;;;5093702;28;20208;-45
2021/07/17 05:42:49;;;;;;;5.40;2.00;;;18.10;99.90;;;;;;5104579;28;20189;-44
2021/07/17 05:45:16;;;;;;;4.90;2.57;;;18.10;99.90;;;;;;5085121;28;20284;-47
2021/07/17 05:47:42;;;;;;;4.70;2.03;;;18.10;99.90;;;;;;5086934;28;20689;-46
2021/07/17 05:50:10;;;;;;;5.00;2.07;;;18.20;99.90;;;;;;5095042;28;20278;-50
2021/07/17 05:52:37;;;;;;;7.93;2.70;;;18.20;99.90;;;;;;5090742;28;20247;-46
2021/07/17 05:55:04;;;;;;;6.87;2.27;;;18.20;99.90;;;;;;5102148;28;20209;-46
2021/07/17 05:57:33;;;;;;;4.13;2.23;;;18.20;99.90;;;;;;5103144;28;20201;-46
2021/07/17 06:00:00;;;;;;;3.20;2.07;;;18.20;99.90;;;;;;5104322;28;20270;-50
2021/07/17 06:02:26;;;;;;;4.90;2.00;;;18.20;99.90;;;;;;5092793;28;20940;-44
2021/07/17 06:04:54;;;;;;;7.17;1.97;;;18.30;99.90;;;;;;5099930;28;20705;-50
2021/07/17 06:07:20;;;;;;;4.50;2.20;;;18.30;99.90;;;;;;5094025;28;23499;-49
2021/07/17 06:09:47;;;;;;;5.60;2.67;;;18.30;99.90;;;;;;5105555;28;20189;-45
2021/07/17 06:12:13;;;;;;;4.57;2.17;;;18.30;99.90;;;;;;5078920;28;20845;-44
2021/07/17 06:14:42;;;;;;;5.17;2.20;;;18.40;99.90;;;;;;5085938;28;20226;-45
2021/07/17 06:17:12;;;;;;;9.30;2.20;;;18.40;99.90;;;;;;5078351;28;20204;-49
2021/07/17 06:19:39;;;;;;;7.73;2.57;;;18.50;99.90;;;;;;5091238;28;20209;-44
2021/07/17 06:22:05;;;;;;;6.93;2.40;;;18.50;99.90;;;;;;5095213;28;20197;-48
2021/07/17 06:24:32;;;;;;;3.87;2.40;;;18.50;99.90;;;;;;5097506;28;20218;-44
2021/07/17 06:26:59;;;;;;;6.80;2.27;;;18.50;99.90;;;;;;5104188;28;20193;-48
2021/07/17 06:29:25;;;;;;;4.47;2.03;;;18.50;99.90;;;;;;5102715;28;20194;-45
2021/07/17 06:31:53;;;;;;;10.30;2.30;;;18.60;99.90;;;;;;5102728;28;20231;-47
2021/07/17 06:34:20;;;;;;;3.83;2.43;;;18.60;99.90;;;;;;5082905;28;20218;-47
2021/07/17 06:36:47;;;;;;;5.43;2.47;;;18.70;99.90;;;;;;5105864;28;20189;-45
2021/07/17 06:39:13;;;;;;;7.23;2.43;;;18.70;99.90;;;;;;5091644;28;20204;-46
2021/07/17 06:41:40;;;;;;;8.63;2.10;;;18.80;99.90;;;;;;5105486;28;20197;-45
2021/07/17 06:44:06;;;;;;;8.13;2.37;;;18.80;99.90;;;;;;5102305;28;20213;-48
2021/07/17 06:46:33;;;;;;;6.40;2.40;;;18.90;99.90;;;;;;5104904;28;20181;-46
2021/07/17 06:49:01;;;;;;;6.97;1.87;;;18.90;99.90;;;;;;5088956;28;20566;-46
2021/07/17 06:51:28;;;;;;;6.63;2.37;;;18.90;99.90;;;;;;5102776;28;20193;-44
2021/07/17 06:53:55;;;;;;;7.30;2.77;;;19.00;99.90;;;;;;5093986;28;20221;-47
2021/07/17 06:56:21;;;;;;;6.70;2.23;;;19.10;99.90;;;;;;5093998;28;20185;-47
2021/07/17 06:58:48;;;;;;;5.50;2.00;;;19.10;99.90;;;;;;5093253;27;20202;-49
2021/07/17 07:01:15;;;;;;;7.53;2.53;;;19.20;99.90;;;;;;5080714;28;20198;-46
2021/07/17 07:03:41;;;;;;;7.20;2.13;;;19.30;99.90;;;;;;5084828;28;20713;-45
2021/07/17 07:06:09;;;;;;;4.30;2.13;;;19.30;99.90;;;;;;5087666;28;20198;-50
2021/07/17 07:08:36;;;;;;;8.03;2.20;;;19.40;99.90;;;;;;5104376;28;20205;-46
2021/07/17 07:11:03;;;;;;;7.73;2.90;;;19.40;99.90;;;;;;5090057;28;20569;-49
2021/07/17 07:13:30;;;;;;;6.60;2.77;;;19.40;99.90;;;;;;5101795;28;20225;-47
2021/07/17 07:15:57;;;;;;;4.93;2.27;;;19.50;99.90;;;;;;5103758;28;20189;-50
2021/07/17 07:18:24;;;;;;;8.93;2.70;;;19.50;99.90;;;;;;5094321;28;20212;-44
2021/07/17 07:20:50;;;;;;;6.97;2.10;;;19.60;99.90;;;;;;5092267;28;20206;-48
2021/07/17 07:23:18;;;;;;;3.30;2.00;;;19.60;99.90;;;;;;5101247;28;20211;-44
2021/07/17 07:25:45;;;;;;;8.87;2.33;;;19.60;99.90;;;;;;5090834;28;20538;-44
2021/07/17 07:28:12;;;;;;;8.60;2.97;;;19.70;99.90;;;;;;5100155;28;20190;-44
2021/07/17 07:30:38;;;;;;;6.67;2.03;;;19.70;99.90;;;;;;5104247;28;20196;-44
2021/07/17 07:33:05;;;;;;;5.00;2.63;;;19.70;99.90;;;;;;5093966;28;20205;-49
2021/07/17 07:35:32;;;;;;;8.77;2.43;;;19.70;99.90;;;;;;5085985;28;20202;-44
2021/07/17 07:37:58;;;;;;;5.23;2.20;;;19.80;99.90;;;;;;5096873;28;20189;-46
2021/07/17 07:40:29;;;;;;;4.70;2.17;;;19.90;99.90;;;;;;5088198;28;20194;-45
2021/07/17 07:42:56;;;;;;;5.50;2.10;;;19.90;99.90;;;;;;5103086;28;20818;-48
2021/07/17 07:45:23;;;;;;;5.73;2.03;;;19.90;99.90;;;;;;5102174;28;20193;-45
2021/07/17 07:47:51;;;;;;;5.90;2.20;;;20.00;99.90;;;;;;5103405;28;20193;-49
2021/07/17 07:50:19;;;;;;;3.73;2.00;;;20.10;99.90;;;;;;5100695;28;20201;-46
2021/07/17 07:52:46;;;;;;;5.57;2.17;;;20.10;99.90;;;;;;5091923;28;20232;-45
2021/07/17 07:55:13;;;;;;;6.37;2.13;;;20.10;99.90;;;;;;5089714;28;21855;-44
2021/07/17 07:57:41;;;;;;;4.40;2.23;;;20.10;99.90;;;;;;5094248;28;20212;-47
2021/07/17 08:00:10;;;;;;;7.20;2.60;;;20.20;99.90;;;;;;5100190;28;20712;-46
2021/07/17 08:02:37;;;;;;;6.67;2.37;;;20.20;99.90;;;;;;5098070;28;20186;-44
2021/07/17 08:05:04;;;;;;;6.73;2.57;;;20.30;99.90;;;;;;5096661;28;20209;-48
2021/07/17 08:07:30;;;;;;;5.60;2.10;;;20.30;99.90;;;;;;5090315;28;20224;-44
2021/07/17 08:09:57;;;;;;;7.77;2.10;;;20.40;99.90;;;;;;5095612;28;20196;-46
2021/07/17 08:12:24;;;;;;;5.07;2.37;;;20.50;99.90;;;;;;5093119;28;20220;-48
2021/07/17 08:14:52;;;;;;;6.37;2.27;;;20.50;99.90;;;;;;5103635;28;20224;-47
2021/07/17 08:17:19;;;;;;;5.50;2.03;;;20.60;99.90;;;;;;5100817;28;20263;-44
2021/07/17 08:19:46;;;;;;;8.70;2.03;;;20.60;99.90;;;;;;5083510;28;20726;-44
2021/07/17 08:22:12;;;;;;;5.20;2.10;;;20.60;99.90;;;;;;5079378;28;20956;-44
2021/07/17 08:24:39;;;;;;;2.80;2.00;;;20.60;99.90;;;;;;5086261;28;20229;-44
2021/07/17 08:27:06;;;;;;;4.93;2.63;;;20.60;99.90;;;;;;5093792;28;20193;-46
2021/07/17 08:29:33;;;;;;;6.13;2.27;;;20.70;99.90;;;;;;5091137;28;20654;-44
2021/07/17 08:32:01;;;;;;;5.90;2.43;;;20.80;99.90;;;;;;5101865;28;20190;-49
2021/07/17 08:34:28;;;;;;;3.50;1.57;;;21.00;99.90;;;;;;5102082;28;20214;-43
2021/07/17 08:36:54;;;;;;;8.60;2.23;;;21.00;99.90;;;;;;5102472;28;20542;-51
2021/07/17 08:39:21;;;;;;;3.57;2.13;;;21.10;99.90;;;;;;5074438;28;20902;-44
2021/07/17 08:41:51;;;;;;;6.23;1.83;;;21.20;99.90;;;;;;5102166;28;20201;-43
2021/07/17 08:44:17;;;;;;;4.00;2.00;;;21.20;99.90;;;;;;5092350;28;20206;-43
2021/07/17 08:46:45;;;;;;;9.10;2.13;;;21.30;99.90;;;;;;5084413;28;20210;-44
2021/07/17 08:49:15;;;;;;;4.33;1.63;;;21.40;99.90;;;;;;5087583;28;20200;-46
2021/07/17 08:51:46;;;;;;;3.78;1.73;;;21.50;99.90;;;;;;5104544;28;20189;-45
2021/07/17 08:54:14;;;;;;;6.77;2.10;;;21.60;99.90;;;;;;5079406;28;20213;-46
2021/07/17 08:56:41;;;;;;;5.82;1.95;;;21.60;99.90;;;;;;5086692;28;20264;-43
2021/07/17 08:59:08;;;;;;;5.80;1.85;;;21.70;99.90;;;;;;5094291;28;20197;-50
2021/07/17 09:01:35;;;;;;;5.05;1.80;;;21.80;99.90;;;;;;5107510;28;20193;-46
2021/07/17 09:04:03;;;;;;;5.35;1.60;;;22.00;99.90;;;;;;5083732;28;20247;-48
2021/07/17 09:06:31;;;;;;;3.50;1.80;;;22.00;99.90;;;;;;5102375;28;20213;-44
2021/07/17 09:08:58;;;;;;;4.60;2.25;;;22.00;99.90;;;;;;5095714;28;20205;-49
2021/07/17 09:11:38;;;;;;;5.13;2.25;;;22.10;99.90;;;;;;5100007;28;20189;-47
2021/07/17 09:14:05;;;;;;;2.63;1.50;;;22.10;99.90;;;;;;5095773;28;20209;-48
2021/07/17 09:16:33;;;;;;;4.97;2.28;;;22.10;99.90;;;;;;5106569;28;20262;-43
2021/07/17 09:19:01;;;;;;;5.20;1.45;;;22.20;99.90;;;;;;5104432;28;20538;-50
2021/07/17 09:21:30;;;;;;;3.22;1.80;;;22.30;99.90;;;;;;5105999;28;20192;-46
2021/07/17 09:24:00;;;;;;;4.43;1.67;;;22.40;99.90;;;;;;5098428;28;20229;-47
2021/07/17 09:26:30;;;;;;;3.83;1.20;;;22.40;99.90;;;;;;5101136;28;20197;-46
2021/07/17 09:29:00;;;;;;;3.80;1.48;;;22.50;99.90;;;;;;5090431;28;20576;-50
2021/07/17 09:31:28;;;;;;;5.57;1.85;;;22.50;99.90;;;;;;5102150;28;20799;-44
2021/07/17 09:34:06;;;;;;;5.20;1.67;;;22.50;99.90;;;;;;5105791;28;20206;-49
2021/07/17 09:36:33;;;;;;;3.63;1.70;;;22.60;99.90;;;;;;5102945;28;20654;-46
2021/07/17 09:39:01;;;;;;;3.55;1.60;;;22.60;99.90;;;;;;5089116;28;20213;-50
2021/07/17 09:41:28;;;;;;;6.10;2.08;;;22.60;99.90;;;;;;5100791;28;20221;-47
2021/07/17 09:44:03;;;;;;;2.75;1.35;;;22.70;99.90;;;;;;5103624;28;20216;-46
2021/07/17 09:46:32;;;;;;;8.00;1.58;;;22.80;99.90;;;;;;5103515;28;20283;-48
2021/07/17 09:49:01;;;;;;;3.25;1.30;;;22.80;99.90;;;;;;5095131;28;20566;-49
2021/07/17 09:51:29;;;;;;;3.67;1.60;;;22.80;99.90;;;;;;5084589;28;20264;-47
2021/07/17 09:53:59;;;;;;;2.78;1.05;;;22.80;99.90;;;;;;5084890;28;20222;-48
2021/07/17 09:56:28;;;;;;;1.65;1.02;;;22.80;99.90;;;;;;5080336;28;20946;-44
2021/07/17 09:58:58;;;;;;;2.75;1.75;;;22.90;99.90;;;;;;5102827;28;20197;-50
2021/07/17 10:01:28;;;;;;;2.63;1.33;;;22.90;99.90;;;;;;5100219;28;20194;-44
2021/07/17 10:04:01;;;;;;;5.20;1.75;;;22.90;99.90;;;;;;5103092;28;20218;-51
2021/07/17 10:06:35;;;;;;;1.80;1.33;;;22.90;99.90;;;;;;5099095;28;20193;-44
2021/07/17 10:09:04;;;;;;;2.22;1.10;;;22.90;99.90;;;;;;5095355;28;20193;-46
2021/07/17 10:11:32;;;;;;;3.65;1.30;;;23.00;99.90;;;;;;5093223;28;20209;-44
2021/07/17 10:13:59;;;;;;;4.10;1.30;;;23.00;99.90;;;;;;5091269;28;20226;-49
2021/07/17 10:16:27;;;;;;;7.60;2.10;;;23.10;99.90;;;;;;5089147;28;20822;-47
2021/07/17 10:18:55;;;;;;;5.32;1.88;;;23.10;99.90;;;;;;5104465;28;20726;-51
2021/07/17 10:21:24;;;;;;;3.78;1.65;;;23.10;99.90;;;;;;5098734;28;20197;-44
2021/07/17 10:23:51;;;;;;;3.72;1.50;;;23.10;99.90;;;;;;5105713;28;20217;-47
2021/07/17 10:26:18;;;;;;;3.58;1.42;;;23.20;99.90;;;;;;5087383;28;20205;-47
2021/07/17 10:28:46;;;;;;;3.45;1.15;;;23.20;99.90;;;;;;5093031;28;20679;-46
2021/07/17 10:31:13;;;;;;;2.25;1.33;;;23.30;99.90;;;;;;5080585;28;20324;-49
2021/07/17 10:33:39;;;;;;;3.65;1.23;;;23.30;99.90;;;;;;5098936;28;20217;-46
2021/07/17 10:36:10;;;;;;;8.82;1.70;;;23.30;99.90;;;;;;5102187;28;20694;-45
2021/07/17 10:38:42;;;;;;;2.50;1.40;;;23.40;99.90;;;;;;5105392;28;20221;-49
2021/07/17 10:41:11;;;;;;;4.72;1.77;;;23.40;99.90;;;;;;5097316;28;20288;-46
2021/07/17 10:43:38;;;;;;;6.82;1.85;;;23.50;99.90;;;;;;5093831;28;20221;-48
2021/07/17 10:46:32;;;;;;;5.35;1.80;;;23.50;99.90;;;;;;5093393;28;20202;-45
2021/07/17 10:49:01;;;;;;;4.55;1.25;;;23.60;99.90;;;;;;5092076;28;20196;-45
2021/07/17 10:51:32;;;;;;;2.80;1.48;;;23.60;99.90;;;;;;5105523;28;20260;-44
2021/07/17 10:54:00;;;;;;;4.57;1.63;;;23.70;99.90;;;;;;5101273;28;20288;-44
2021/07/17 10:56:43;;;;;;;2.78;1.30;;;23.80;99.90;;;;;;5098539;28;20205;-44
2021/07/17 10:59:38;;;;;;;3.63;1.35;;;23.90;99.90;;;;;;5091540;28;20230;-44
2021/07/17 11:02:07;;;;;;;2.45;1.23;;;24.10;99.90;;;;;;5092627;27;20946;-46
2021/07/17 11:04:38;;;;;;;4.28;1.38;;;24.10;99.90;;;;;;5098564;28;20217;-46
2021/07/17 11:07:34;;;;;;;4.15;1.50;;;24.10;99.90;;;;;;5101198;28;20289;-47
2021/07/17 11:10:14;;;;;;;4.05;1.67;;;24.10;99.90;;;;;;5086283;28;20185;-45
2021/07/17 11:12:56;;;;;;;3.03;1.77;;;24.10;99.90;;;;;;5101399;28;20228;-44
2021/07/17 11:15:40;;;;;;;5.43;2.10;;;24.10;99.90;;;;;;5095389;28;20599;-45
2021/07/17 11:18:35;;;;;;;4.47;1.30;;;24.10;99.90;;;;;;5089404;28;20832;-45
2021/07/17 11:21:05;;;;;;;4.45;1.42;;;24.20;99.90;;;;;;5100421;28;20264;-49
2021/07/17 11:23:41;;;;;;;3.28;1.60;;;24.20;99.90;;;;;;5104860;28;20216;-45
2021/07/17 11:26:11;;;;;;;2.47;1.10;;;24.20;99.90;;;;;;5101686;28;20877;-48
2021/07/17 11:28:57;;;;;;;3.20;1.50;;;24.30;99.90;;;;;;5072925;28;20232;-45
2021/07/17 11:31:44;;;;;;;5.70;1.52;;;24.30;99.90;;;;;;5083952;28;20214;-46
2021/07/17 11:34:53;;;;;;;3.15;1.17;;;24.30;99.90;;;;;;5083406;28;20232;-48
2021/07/17 11:37:23;;;;;;;6.85;1.70;;;24.40;99.90;;;;;;5104310;28;20197;-48
2021/07/17 11:39:54;;;;;;;2.75;0.90;;;24.40;99.90;;;;;;5100788;28;20216;-45
2021/07/17 11:42:21;;;;;;;2.90;1.33;;;24.50;99.90;;;;;;5086046;28;20201;-48
2021/07/17 11:44:51;;;;;;;2.47;1.40;;;24.50;99.90;;;;;;5078911;28;20573;-44
2021/07/17 11:47:19;;;;;;;2.45;1.10;;;24.50;99.90;;;;;;5102544;28;20193;-48
2021/07/17 11:49:48;;;;;;;4.35;1.48;;;24.60;99.90;;;;;;5078561;28;20197;-43
2021/07/17 11:52:19;;;;;;;6.20;1.52;;;24.60;99.90;;;;;;5102652;28;20185;-51
2021/07/17 11:54:50;;;;;;;2.65;1.33;;;24.60;99.90;;;;;;5102512;28;20217;-46
2021/07/17 11:57:19;;;;;;;4.03;1.40;;;24.80;99.90;;;;;;5093259;28;20248;-48
2021/07/17 11:59:48;;;;;;;2.50;1.58;;;24.80;99.90;;;;;;5086909;28;20205;-45
2021/07/17 12:02:18;;;;;;;3.55;1.42;;;24.80;99.90;;;;;;5102911;28;20312;-51
2021/07/17 12:04:47;;;;;;;4.95;1.30;;;24.80;99.90;;;;;;5080032;28;20225;-45
2021/07/17 12:07:17;;;;;;;3.40;1.70;;;24.80;99.90;;;;;;5102138;28;20193;-51
2021/07/17 12:09:48;;;;;;;3.92;1.42;;;24.90;99.90;;;;;;5101957;28;20200;-46
2021/07/17 12:12:29;;;;;;;3.05;1.38;;;24.90;99.90;;;;;;5102506;28;20942;-45
2021/07/17 12:15:09;;;;;;;3.83;1.88;;;25.00;99.90;;;;;;5078870;28;20222;-44
2021/07/17 12:17:36;;;;;;;3.47;1.27;;;25.00;99.90;;;;;;5083825;28;20651;-47
2021/07/17 12:20:16;;;;;;;5.05;1.33;;;25.10;99.90;;;;;;5079788;28;20197;-48
2021/07/17 12:22:50;;;;;;;3.17;1.48;;;25.10;99.50;;;;;;5102856;28;20189;-44
2021/07/17 12:25:22;;;;;;;4.85;1.75;;;25.10;99.90;;;;;;5102585;28;20204;-53
2021/07/17 12:28:08;;;;;;;2.92;1.25;;;25.10;99.90;;;;;;5100537;28;20539;-45
2021/07/17 12:30:36;;;;;;;1.92;1.17;;;25.10;99.90;;;;;;5090453;28;20214;-47
2021/07/17 12:33:27;;;;;;;5.45;1.50;;;25.20;99.90;;;;;;5100135;28;20185;-47
2021/07/17 12:36:09;;;;;;;3.67;1.45;;;25.20;99.90;;;;;;5087727;28;20224;-45
2021/07/17 12:38:39;;;;;;;6.25;1.42;;;25.20;99.90;;;;;;5100263;28;20288;-49
2021/07/17 12:41:08;;;;;;;3.63;1.50;;;25.40;99.90;;;;;;5099941;28;20185;-48
2021/07/17 12:43:37;;;;;;;2.55;1.23;;;25.50;99.90;;;;;;5103944;28;20217;-53
2021/07/17 12:46:13;;;;;;;2.13;1.30;;;25.50;99.90;;;;;;5087169;28;20196;-45
2021/07/17 12:48:47;;;;;;;4.35;1.42;;;25.50;99.90;;;;;;5101944;28;20200;-45
2021/07/17 12:51:15;;;;;;;2.28;1.50;;;25.60;99.90;;;;;;5091764;28;21090;-49